sensor_id;sensor_type;location;lat;lon;timestamp;pressure;altitude;pressure_sealevel;temperature;humidity
62051;BME280;48008;51.204;6.766;2022-09-09T00:01:54;100428.72;;;16.51;86.95
62051;BME280;48008;51.204;6.766;2022-09-09T00:04:28;100435.13;;;16.57;86.97
62051;BME280;48008;51.204;6.766;2022-09-09T00:07:48;100436.94;;;16.49;86.45
62051;BME280;48008;51.204;6.766;2022-09-09T00:12:52;100430.97;;;16.47;85.97
62051;BME280;48008;51.204;6.766;2022-09-09T00:15:25;100429.91;;;16.42;86.24
62051;BME280;48008;51.204;6.766;2022-09-09T00:18:01;100422.28;;;16.32;85.04
62051;BME280;48008;51.204;6.766;2022-09-09T00:20:52;100424.94;;;16.32;85.12
62051;BME280;48008;51.204;6.766;2022-09-09T00:23:27;100423.91;;;16.33;86.69
62051;BME280;48008;51.204;6.766;2022-09-09T00:26:18;100423.09;;;16.33;87.32
62051;BME280;48008;51.204;6.766;2022-09-09T00:28:55;100423.91;;;16.33;88.11
62051;BME280;48008;51.204;6.766;2022-09-09T00:31:28;100423.66;;;16.28;87.51
62051;BME280;48008;51.204;6.766;2022-09-09T00:34:03;100427.44;;;16.40;87.85
62051;BME280;48008;51.204;6.766;2022-09-09T00:36:32;100429.28;;;16.40;88.81
62051;BME280;48008;51.204;6.766;2022-09-09T00:39:01;100424.59;;;16.48;88.13
62051;BME280;48008;51.204;6.766;2022-09-09T00:44:38;100421.09;;;16.55;87.93
62051;BME280;48008;51.204;6.766;2022-09-09T00:47:15;100409.16;;;16.50;88.08
62051;BME280;48008;51.204;6.766;2022-09-09T00:50:05;100420.28;;;16.54;88.62
62051;BME280;48008;51.204;6.766;2022-09-09T00:55:39;100417.78;;;16.46;88.94
62051;BME280;48008;51.204;6.766;2022-09-09T00:58:09;100415.16;;;16.59;88.16
62051;BME280;48008;51.204;6.766;2022-09-09T01:00:43;100415.75;;;16.55;88.15
62051;BME280;48008;51.204;6.766;2022-09-09T01:03:33;100422.34;;;16.52;88.76
62051;BME280;48008;51.204;6.766;2022-09-09T01:06:23;100420.50;;;16.59;88.57
62051;BME280;48008;51.204;6.766;2022-09-09T01:12:14;100415.09;;;16.46;89.51
62051;BME280;48008;51.204;6.766;2022-09-09T01:14:56;100415.94;;;16.53;89.06
62051;BME280;48008;51.204;6.766;2022-09-09T01:17:32;100408.97;;;16.52;89.23
62051;BME280;48008;51.204;6.766;2022-09-09T01:20:17;100414.31;;;16.52;89.23
62051;BME280;48008;51.204;6.766;2022-09-09T01:23:16;100409.34;;;16.49;89.25
62051;BME280;48008;51.204;6.766;2022-09-09T01:28:38;100412.41;;;16.39;88.01
62051;BME280;48008;51.204;6.766;2022-09-09T01:31:14;100414.44;;;16.30;87.73
62051;BME280;48008;51.204;6.766;2022-09-09T01:33:45;100418.44;;;16.55;85.22
62051;BME280;48008;51.204;6.766;2022-09-09T01:36:19;100409.53;;;16.47;84.93
62051;BME280;48008;51.204;6.766;2022-09-09T01:38:51;100412.69;;;16.58;84.90
62051;BME280;48008;51.204;6.766;2022-09-09T01:41:19;100399.47;;;16.56;83.18
62051;BME280;48008;51.204;6.766;2022-09-09T01:43:54;100407.69;;;16.48;85.22
62051;BME280;48008;51.204;6.766;2022-09-09T01:46:23;100396.78;;;16.49;85.35
62051;BME280;48008;51.204;6.766;2022-09-09T01:48:52;100398.81;;;16.41;83.33
62051;BME280;48008;51.204;6.766;2022-09-09T01:51:20;100399.88;;;16.46;84.46
62051;BME280;48008;51.204;6.766;2022-09-09T01:53:47;100404.38;;;16.46;85.72
62051;BME280;48008;51.204;6.766;2022-09-09T01:56:42;100405.03;;;16.55;83.50
62051;BME280;48008;51.204;6.766;2022-09-09T01:59:24;100407.06;;;16.46;85.16
62051;BME280;48008;51.204;6.766;2022-09-09T02:02:09;100409.53;;;16.47;85.50
62051;BME280;48008;51.204;6.766;2022-09-09T02:04:44;100401.97;;;16.58;85.71
62051;BME280;48008;51.204;6.766;2022-09-09T02:07:38;100399.28;;;16.58;85.75
62051;BME280;48008;51.204;6.766;2022-09-09T02:10:17;100409.19;;;16.64;85.73
62051;BME280;48008;51.204;6.766;2022-09-09T02:13:01;100407.13;;;16.66;85.96
62051;BME280;48008;51.204;6.766;2022-09-09T02:15:35;100409.22;;;16.70;85.98
62051;BME280;48008;51.204;6.766;2022-09-09T02:18:08;100408.19;;;16.78;84.54
62051;BME280;48008;51.204;6.766;2022-09-09T02:20:38;100411.25;;;16.75;85.13
62051;BME280;48008;51.204;6.766;2022-09-09T02:23:06;100411.53;;;16.87;86.16
62051;BME280;48008;51.204;6.766;2022-09-09T02:25:36;100407.16;;;16.79;84.39
62051;BME280;48008;51.204;6.766;2022-09-09T02:28:16;100402.22;;;16.76;84.19
62051;BME280;48008;51.204;6.766;2022-09-09T02:30:45;100410.28;;;16.89;83.88
62051;BME280;48008;51.204;6.766;2022-09-09T02:33:15;100408.03;;;16.86;84.63
62051;BME280;48008;51.204;6.766;2022-09-09T02:35:48;100407.00;;;16.87;84.82
62051;BME280;48008;51.204;6.766;2022-09-09T02:38:21;100399.59;;;16.83;84.23
62051;BME280;48008;51.204;6.766;2022-09-09T02:40:58;100403.09;;;16.90;82.17
62051;BME280;48008;51.204;6.766;2022-09-09T02:43:25;100407.03;;;16.94;82.61
62051;BME280;48008;51.204;6.766;2022-09-09T02:46:01;100401.25;;;16.97;81.98
62051;BME280;48008;51.204;6.766;2022-09-09T02:48:40;100402.06;;;16.91;81.90
62051;BME280;48008;51.204;6.766;2022-09-09T02:51:19;100400.84;;;16.94;82.42
62051;BME280;48008;51.204;6.766;2022-09-09T02:56:30;100393.84;;;16.99;80.97
62051;BME280;48008;51.204;6.766;2022-09-09T02:59:03;100391.97;;;17.00;80.04
62051;BME280;48008;51.204;6.766;2022-09-09T03:01:32;100395.88;;;16.91;79.75
62051;BME280;48008;51.204;6.766;2022-09-09T03:03:59;100396.31;;;17.01;79.54
62051;BME280;48008;51.204;6.766;2022-09-09T03:06:26;100391.16;;;16.99;80.87
62051;BME280;48008;51.204;6.766;2022-09-09T03:09:02;100389.28;;;17.00;80.65
62051;BME280;48008;51.204;6.766;2022-09-09T03:11:29;100391.97;;;17.00;80.90
62051;BME280;48008;51.204;6.766;2022-09-09T03:13:57;100384.13;;;16.85;79.64
62051;BME280;48008;51.204;6.766;2022-09-09T03:16:25;100383.31;;;16.91;80.50
62051;BME280;48008;51.204;6.766;2022-09-09T03:18:53;100387.44;;;16.94;80.25
62051;BME280;48008;51.204;6.766;2022-09-09T03:21:21;100384.13;;;16.98;80.39
62051;BME280;48008;51.204;6.766;2022-09-09T03:23:48;100386.63;;;17.00;79.41
62051;BME280;48008;51.204;6.766;2022-09-09T03:26:15;100377.34;;;16.96;79.30
62051;BME280;48008;51.204;6.766;2022-09-09T03:28:44;100382.91;;;17.07;77.44
62051;BME280;48008;51.204;6.766;2022-09-09T03:31:14;100388.47;;;16.93;77.84
62051;BME280;48008;51.204;6.766;2022-09-09T03:33:42;100383.72;;;16.95;79.78
62051;BME280;48008;51.204;6.766;2022-09-09T03:36:11;100386.81;;;16.92;79.11
62051;BME280;48008;51.204;6.766;2022-09-09T03:38:38;100388.47;;;16.99;78.81
62051;BME280;48008;51.204;6.766;2022-09-09T03:41:06;100393.63;;;17.01;79.17
62051;BME280;48008;51.204;6.766;2022-09-09T03:43:34;100390.75;;;16.96;79.43
62051;BME280;48008;51.204;6.766;2022-09-09T03:46:01;100388.88;;;16.89;78.52
62051;BME280;48008;51.204;6.766;2022-09-09T03:48:29;100382.72;;;16.96;80.21
62051;BME280;48008;51.204;6.766;2022-09-09T03:50:56;100374.25;;;16.99;78.41
62051;BME280;48008;51.204;6.766;2022-09-09T03:53:24;100386.00;;;16.98;78.76
62051;BME280;48008;51.204;6.766;2022-09-09T03:55:54;100374.25;;;16.92;78.04
62051;BME280;48008;51.204;6.766;2022-09-09T03:58:23;100382.28;;;16.92;79.66
62051;BME280;48008;51.204;6.766;2022-09-09T04:00:54;100384.34;;;17.03;79.30
62051;BME280;48008;51.204;6.766;2022-09-09T04:03:21;100388.69;;;16.98;79.62
62051;BME280;48008;51.204;6.766;2022-09-09T04:05:52;100385.19;;;16.97;79.62
62051;BME280;48008;51.204;6.766;2022-09-09T04:08:20;100382.28;;;16.92;78.57
62051;BME280;48008;51.204;6.766;2022-09-09T04:10:49;100387.44;;;17.00;78.91
62051;BME280;48008;51.204;6.766;2022-09-09T04:13:17;100385.19;;;16.97;79.56
62051;BME280;48008;51.204;6.766;2022-09-09T04:15:51;100383.50;;;16.89;79.21
62051;BME280;48008;51.204;6.766;2022-09-09T04:18:19;100387.66;;;17.05;79.13
62051;BME280;48008;51.204;6.766;2022-09-09T04:20:47;100387.44;;;17.00;80.17
62051;BME280;48008;51.204;6.766;2022-09-09T04:23:15;100382.94;;;17.01;79.00
62051;BME280;48008;51.204;6.766;2022-09-09T04:25:45;100383.75;;;17.01;80.60
62051;BME280;48008;51.204;6.766;2022-09-09T04:28:14;100374.47;;;16.97;79.26
62051;BME280;48008;51.204;6.766;2022-09-09T04:30:42;100385.38;;;17.02;80.12
62051;BME280;48008;51.204;6.766;2022-09-09T04:33:10;100391.34;;;17.04;80.13
62051;BME280;48008;51.204;6.766;2022-09-09T04:35:37;100386.00;;;16.98;78.67
62051;BME280;48008;51.204;6.766;2022-09-09T04:38:05;100385.59;;;17.07;79.06
62051;BME280;48008;51.204;6.766;2022-09-09T04:40:34;100383.53;;;17.03;77.95
62051;BME280;48008;51.204;6.766;2022-09-09T04:43:02;100375.06;;;17.06;78.29
62051;BME280;48008;51.204;6.766;2022-09-09T04:45:31;100382.91;;;16.94;78.41
62051;BME280;48008;51.204;6.766;2022-09-09T04:47:59;100389.72;;;17.03;78.44
62051;BME280;48008;51.204;6.766;2022-09-09T04:50:26;100385.19;;;16.97;78.49
62051;BME280;48008;51.204;6.766;2022-09-09T04:53:00;100380.63;;;17.04;77.64
62051;BME280;48008;51.204;6.766;2022-09-09T04:55:28;100391.16;;;17.06;78.53
62051;BME280;48008;51.204;6.766;2022-09-09T04:57:55;100390.13;;;16.94;78.70
62051;BME280;48008;51.204;6.766;2022-09-09T05:00:24;100388.47;;;17.13;78.48
62051;BME280;48008;51.204;6.766;2022-09-09T05:02:51;100390.16;;;17.14;78.09
62051;BME280;48008;51.204;6.766;2022-09-09T05:05:18;100388.47;;;17.13;77.69
62051;BME280;48008;51.204;6.766;2022-09-09T05:07:46;100391.16;;;17.06;78.29
62051;BME280;48008;51.204;6.766;2022-09-09T05:10:15;100382.72;;;17.09;78.78
62051;BME280;48008;51.204;6.766;2022-09-09T05:12:52;100386.81;;;17.12;79.05
62051;BME280;48008;51.204;6.766;2022-09-09T05:15:20;100389.72;;;17.17;78.98
62051;BME280;48008;51.204;6.766;2022-09-09T05:17:47;100386.81;;;17.18;77.27
62051;BME280;48008;51.204;6.766;2022-09-09T05:20:14;100381.66;;;17.17;77.93
62051;BME280;48008;51.204;6.766;2022-09-09T05:22:43;100380.84;;;17.03;77.45
62051;BME280;48008;51.204;6.766;2022-09-09T05:25:10;100379.41;;;17.00;78.63
62051;BME280;48008;51.204;6.766;2022-09-09T05:27:38;100380.03;;;17.09;78.95
62051;BME280;48008;51.204;6.766;2022-09-09T05:30:06;100376.31;;;16.97;79.39
62051;BME280;48008;51.204;6.766;2022-09-09T05:32:33;100373.44;;;17.05;79.58
62051;BME280;48008;51.204;6.766;2022-09-09T05:35:00;100368.69;;;17.07;79.42
62051;BME280;48008;51.204;6.766;2022-09-09T05:37:28;100364.97;;;17.15;78.66
62051;BME280;48008;51.204;6.766;2022-09-09T05:39:57;100372.38;;;17.26;78.85
62051;BME280;48008;51.204;6.766;2022-09-09T05:42:29;100369.50;;;17.27;77.60
62051;BME280;48008;51.204;6.766;2022-09-09T05:44:57;100382.72;;;17.36;77.40
62051;BME280;48008;51.204;6.766;2022-09-09T05:47:25;100376.50;;;17.35;76.74
62051;BME280;48008;51.204;6.766;2022-09-09T05:49:54;100377.56;;;17.34;78.31
62051;BME280;48008;51.204;6.766;2022-09-09T05:52:21;100380.66;;;17.38;77.48
62051;BME280;48008;51.204;6.766;2022-09-09T05:54:50;100380.84;;;17.36;76.87
62051;BME280;48008;51.204;6.766;2022-09-09T05:57:16;100380.84;;;17.43;78.08
62051;BME280;48008;51.204;6.766;2022-09-09T05:59:43;100391.97;;;17.53;77.80
62051;BME280;48008;51.204;6.766;2022-09-09T06:02:11;100386.59;;;17.53;77.70
62051;BME280;48008;51.204;6.766;2022-09-09T06:04:39;100387.81;;;17.64;78.06
62051;BME280;48008;51.204;6.766;2022-09-09T06:07:07;100388.47;;;17.59;77.10
62051;BME280;48008;51.204;6.766;2022-09-09T06:09:34;100396.06;;;17.62;77.44
62051;BME280;48008;51.204;6.766;2022-09-09T06:12:01;100390.28;;;17.72;77.08
62051;BME280;48008;51.204;6.766;2022-09-09T06:14:31;100385.75;;;17.66;76.29
62051;BME280;48008;51.204;6.766;2022-09-09T06:16:59;100387.81;;;17.77;74.77
62051;BME280;48008;51.204;6.766;2022-09-09T06:19:28;100389.66;;;17.77;75.89
62051;BME280;48008;51.204;6.766;2022-09-09T06:21:58;100392.38;;;17.70;74.24
62051;BME280;48008;51.204;6.766;2022-09-09T06:24:26;100394.63;;;17.53;74.23
62051;BME280;48008;51.204;6.766;2022-09-09T06:26:53;100391.97;;;17.60;74.03
62051;BME280;48008;51.204;6.766;2022-09-09T06:29:25;100389.69;;;17.63;73.97
62051;BME280;48008;51.204;6.766;2022-09-09T06:31:52;100394.22;;;17.50;74.71
62051;BME280;48008;51.204;6.766;2022-09-09T06:34:21;100394.84;;;17.65;75.16
62051;BME280;48008;51.204;6.766;2022-09-09T06:36:53;100395.25;;;17.62;74.93
62051;BME280;48008;51.204;6.766;2022-09-09T06:39:20;100392.19;;;17.38;75.11
62051;BME280;48008;51.204;6.766;2022-09-09T06:41:47;100392.00;;;17.46;74.79
62051;BME280;48008;51.204;6.766;2022-09-09T06:44:34;100398.56;;;17.44;75.92
62051;BME280;48008;51.204;6.766;2022-09-09T06:47:03;100398.34;;;17.39;75.00
62051;BME280;48008;51.204;6.766;2022-09-09T06:49:32;100391.97;;;17.40;75.26
62051;BME280;48008;51.204;6.766;2022-09-09T06:52:00;100396.53;;;17.39;75.72
62051;BME280;48008;51.204;6.766;2022-09-09T06:54:28;100396.50;;;17.46;74.78
62051;BME280;48008;51.204;6.766;2022-09-09T06:56:55;100393.41;;;17.49;74.36
62051;BME280;48008;51.204;6.766;2022-09-09T06:59:22;100398.16;;;17.54;74.13
62051;BME280;48008;51.204;6.766;2022-09-09T07:01:52;100396.31;;;17.41;73.48
62051;BME280;48008;51.204;6.766;2022-09-09T07:04:21;100395.69;;;17.25;73.58
62051;BME280;48008;51.204;6.766;2022-09-09T07:06:48;100400.84;;;17.54;72.26
62051;BME280;48008;51.204;6.766;2022-09-09T07:09:20;100400.00;;;17.60;72.27
62051;BME280;48008;51.204;6.766;2022-09-09T07:11:50;100399.78;;;17.68;71.30
62051;BME280;48008;51.204;6.766;2022-09-09T07:14:20;100395.03;;;17.70;71.15
62051;BME280;48008;51.204;6.766;2022-09-09T07:16:53;100401.84;;;17.79;69.97
62051;BME280;48008;51.204;6.766;2022-09-09T07:19:23;100405.97;;;17.89;69.45
62051;BME280;48008;51.204;6.766;2022-09-09T07:21:52;100403.06;;;17.77;70.42
62051;BME280;48008;51.204;6.766;2022-09-09T07:24:21;100417.09;;;17.79;68.84
62051;BME280;48008;51.204;6.766;2022-09-09T07:26:48;100415.03;;;17.74;69.83
62051;BME280;48008;51.204;6.766;2022-09-09T07:29:15;100423.09;;;17.81;69.70
62051;BME280;48008;51.204;6.766;2022-09-09T07:31:45;100420.41;;;17.81;70.08
62051;BME280;48008;51.204;6.766;2022-09-09T07:34:16;100415.66;;;17.76;69.61
62051;BME280;48008;51.204;6.766;2022-09-09T07:36:43;100419.38;;;17.89;69.53
62051;BME280;48008;51.204;6.766;2022-09-09T07:39:13;100416.25;;;17.98;70.75
62051;BME280;48008;51.204;6.766;2022-09-09T07:41:46;100424.25;;;18.18;69.88
62051;BME280;48008;51.204;6.766;2022-09-09T07:44:19;100425.03;;;18.26;65.99
62051;BME280;48008;51.204;6.766;2022-09-09T07:46:50;100435.38;;;18.29;66.17
62051;BME280;48008;51.204;6.766;2022-09-09T07:49:22;100433.50;;;18.29;65.09
62051;BME280;48008;51.204;6.766;2022-09-09T07:51:53;100430.84;;;18.22;65.73
62051;BME280;48008;51.204;6.766;2022-09-09T07:54:21;100433.28;;;18.31;66.24
62051;BME280;48008;51.204;6.766;2022-09-09T07:56:51;100442.75;;;18.40;65.27
62051;BME280;48008;51.204;6.766;2022-09-09T07:59:21;100434.50;;;18.35;64.88
62051;BME280;48008;51.204;6.766;2022-09-09T08:01:52;100434.75;;;18.27;63.69
62051;BME280;48008;51.204;6.766;2022-09-09T08:04:24;100436.16;;;18.36;64.20
62051;BME280;48008;51.204;6.766;2022-09-09T08:06:54;100432.47;;;18.30;62.92
62051;BME280;48008;51.204;6.766;2022-09-09T08:09:23;100440.13;;;18.27;63.13
62051;BME280;48008;51.204;6.766;2022-09-09T08:11:56;100437.00;;;18.30;62.25
62051;BME280;48008;51.204;6.766;2022-09-09T08:14:24;100435.13;;;18.37;62.73
62051;BME280;48008;51.204;6.766;2022-09-09T08:16:51;100435.31;;;18.42;62.18
62051;BME280;48008;51.204;6.766;2022-09-09T08:19:22;100435.25;;;18.55;62.59
62051;BME280;48008;51.204;6.766;2022-09-09T08:21:51;100436.44;;;18.66;62.03
62051;BME280;48008;51.204;6.766;2022-09-09T08:24:17;100438.28;;;18.72;62.48
62051;BME280;48008;51.204;6.766;2022-09-09T08:26:48;100435.78;;;18.77;62.43
62051;BME280;48008;51.204;6.766;2022-09-09T08:29:19;100436.09;;;18.94;60.34
62051;BME280;48008;51.204;6.766;2022-09-09T08:31:49;100439.00;;;18.93;60.49
62051;BME280;48008;51.204;6.766;2022-09-09T08:34:17;100437.97;;;18.94;60.48
62051;BME280;48008;51.204;6.766;2022-09-09T08:36:48;100427.16;;;19.01;60.83
62051;BME280;48008;51.204;6.766;2022-09-09T08:39:19;100442.13;;;19.22;59.09
62051;BME280;48008;51.204;6.766;2022-09-09T08:42:12;100441.06;;;19.23;59.24
62051;BME280;48008;51.204;6.766;2022-09-09T08:50:25;100437.59;;;19.15;59.37
62051;BME280;48008;51.204;6.766;2022-09-09T08:53:05;100440.47;;;19.21;59.61
62051;BME280;48008;51.204;6.766;2022-09-09T08:55:58;100442.91;;;19.29;59.71
62051;BME280;48008;51.204;6.766;2022-09-09T08:58:33;100444.59;;;19.23;59.68
62051;BME280;48008;51.204;6.766;2022-09-09T09:04:56;100442.06;;;19.28;58.35
62051;BME280;48008;51.204;6.766;2022-09-09T09:10:39;100454.44;;;19.04;57.76
62051;BME280;48008;51.204;6.766;2022-09-09T09:13:38;100451.16;;;18.95;58.66
62051;BME280;48008;51.204;6.766;2022-09-09T09:16:32;100446.19;;;18.99;58.44
62051;BME280;48008;51.204;6.766;2022-09-09T09:19:01;100449.22;;;19.09;57.99
62051;BME280;48008;51.204;6.766;2022-09-09T09:24:51;100458.34;;;19.08;58.44
62051;BME280;48008;51.204;6.766;2022-09-09T09:27:35;100459.50;;;19.19;58.30
62051;BME280;48008;51.204;6.766;2022-09-09T09:30:25;100453.81;;;19.34;57.86
62051;BME280;48008;51.204;6.766;2022-09-09T09:33:02;100459.63;;;19.31;56.94
62051;BME280;48008;51.204;6.766;2022-09-09T09:35:32;100454.09;;;19.76;54.77
62051;BME280;48008;51.204;6.766;2022-09-09T09:38:13;100446.53;;;20.28;53.10
62051;BME280;48008;51.204;6.766;2022-09-09T09:41:03;100445.75;;;20.40;53.29
62051;BME280;48008;51.204;6.766;2022-09-09T09:43:33;100446.22;;;22.62;47.29
62051;BME280;48008;51.204;6.766;2022-09-09T09:46:04;100456.16;;;23.03;44.69
62051;BME280;48008;51.204;6.766;2022-09-09T09:48:42;100448.03;;;21.93;47.41
62051;BME280;48008;51.204;6.766;2022-09-09T09:51:12;100460.50;;;21.16;49.36
62051;BME280;48008;51.204;6.766;2022-09-09T09:53:43;100455.22;;;21.21;50.13
62051;BME280;48008;51.204;6.766;2022-09-09T09:56:13;100452.63;;;21.03;50.49
62051;BME280;48008;51.204;6.766;2022-09-09T09:58:49;100446.94;;;20.93;50.78
62051;BME280;48008;51.204;6.766;2022-09-09T10:01:25;100450.44;;;20.63;51.17
62051;BME280;48008;51.204;6.766;2022-09-09T10:04:02;100439.75;;;20.56;51.54
62051;BME280;48008;51.204;6.766;2022-09-09T10:06:32;100439.13;;;20.73;51.51
62051;BME280;48008;51.204;6.766;2022-09-09T10:09:01;100439.00;;;20.98;50.59
62051;BME280;48008;51.204;6.766;2022-09-09T10:11:44;100442.72;;;20.85;51.61
62051;BME280;48008;51.204;6.766;2022-09-09T10:14:20;100432.16;;;20.83;51.60
62051;BME280;48008;51.204;6.766;2022-09-09T10:17:02;100434.72;;;20.60;50.68
62051;BME280;48008;51.204;6.766;2022-09-09T10:19:35;100426.50;;;20.55;51.71
62051;BME280;48008;51.204;6.766;2022-09-09T10:30:54;100439.16;;;19.99;52.69
62051;BME280;48008;51.204;6.766;2022-09-09T10:36:25;100432.28;;;20.03;52.95
62051;BME280;48008;51.204;6.766;2022-09-09T10:39:18;100428.78;;;20.02;53.24
62051;BME280;48008;51.204;6.766;2022-09-09T10:42:05;100422.63;;;20.13;53.42
62051;BME280;48008;51.204;6.766;2022-09-09T10:47:25;100427.53;;;20.05;53.56
62051;BME280;48008;51.204;6.766;2022-09-09T10:50:26;100426.31;;;20.01;53.58
62051;BME280;48008;51.204;6.766;2022-09-09T10:53:08;100420.06;;;20.37;53.41
62051;BME280;48008;51.204;6.766;2022-09-09T10:55:43;100422.31;;;20.40;52.86
62051;BME280;48008;51.204;6.766;2022-09-09T10:58:18;100420.91;;;20.38;52.88
62051;BME280;48008;51.204;6.766;2022-09-09T11:00:49;100416.75;;;20.53;53.00
62051;BME280;48008;51.204;6.766;2022-09-09T11:03:24;100414.97;;;20.66;51.38
62051;BME280;48008;51.204;6.766;2022-09-09T11:05:56;100413.88;;;20.37;52.17
62051;BME280;48008;51.204;6.766;2022-09-09T11:08:28;100418.84;;;20.21;52.98
62051;BME280;48008;51.204;6.766;2022-09-09T11:11:03;100415.91;;;19.86;54.15
62051;BME280;48008;51.204;6.766;2022-09-09T11:16:29;100421.25;;;19.67;58.71
62051;BME280;48008;51.204;6.766;2022-09-09T11:19:09;100430.31;;;19.48;57.90
62051;BME280;48008;51.204;6.766;2022-09-09T11:21:49;100430.53;;;19.46;57.74
62051;BME280;48008;51.204;6.766;2022-09-09T11:24:25;100433.56;;;19.56;58.79
62051;BME280;48008;51.204;6.766;2022-09-09T11:27:00;100432.78;;;19.24;59.94
62051;BME280;48008;51.204;6.766;2022-09-09T11:32:40;100432.28;;;19.59;59.92
62051;BME280;48008;51.204;6.766;2022-09-09T11:35:35;100425.44;;;20.07;60.50
62051;BME280;48008;51.204;6.766;2022-09-09T11:38:18;100413.38;;;20.09;56.16
62051;BME280;48008;51.204;6.766;2022-09-09T11:40:46;100417.03;;;20.15;56.54
62051;BME280;48008;51.204;6.766;2022-09-09T11:43:17;100419.66;;;20.03;56.13
62051;BME280;48008;51.204;6.766;2022-09-09T11:45:53;100421.75;;;20.01;55.75
62051;BME280;48008;51.204;6.766;2022-09-09T11:48:26;100423.09;;;19.92;57.73
62051;BME280;48008;51.204;6.766;2022-09-09T11:51:27;100426.72;;;19.79;57.28
62051;BME280;48008;51.204;6.766;2022-09-09T11:53:58;100417.19;;;19.83;57.16
62051;BME280;48008;51.204;6.766;2022-09-09T11:59:05;100430.50;;;19.78;55.95
62051;BME280;48008;51.204;6.766;2022-09-09T12:04:13;100426.97;;;19.78;57.12
62051;BME280;48008;51.204;6.766;2022-09-09T12:06:46;100431.09;;;20.17;56.45
62051;BME280;48008;51.204;6.766;2022-09-09T12:09:22;100431.38;;;20.46;55.20
62051;BME280;48008;51.204;6.766;2022-09-09T12:11:51;100428.25;;;21.33;53.90
62051;BME280;48008;51.204;6.766;2022-09-09T12:14:20;100428.44;;;21.85;51.10
62051;BME280;48008;51.204;6.766;2022-09-09T12:16:47;100426.22;;;21.71;50.97
62051;BME280;48008;51.204;6.766;2022-09-09T12:19:21;100423.50;;;21.59;51.55
62051;BME280;48008;51.204;6.766;2022-09-09T12:22:11;100427.47;;;21.92;50.66
62051;BME280;48008;51.204;6.766;2022-09-09T12:28:04;100416.81;;;21.61;51.69
62051;BME280;48008;51.204;6.766;2022-09-09T12:30:56;100425.66;;;21.26;51.58
62051;BME280;48008;51.204;6.766;2022-09-09T12:33:34;100426.16;;;21.23;51.72
62051;BME280;48008;51.204;6.766;2022-09-09T12:36:03;100425.75;;;20.96;52.01
62051;BME280;48008;51.204;6.766;2022-09-09T12:38:35;100424.44;;;20.87;52.16
62051;BME280;48008;51.204;6.766;2022-09-09T12:41:03;100427.69;;;20.59;52.90
62051;BME280;48008;51.204;6.766;2022-09-09T12:43:30;100418.44;;;20.36;53.76
62051;BME280;48008;51.204;6.766;2022-09-09T12:46:00;100421.22;;;20.29;53.72
62051;BME280;48008;51.204;6.766;2022-09-09T12:48:35;100406.09;;;20.10;55.16
62051;BME280;48008;51.204;6.766;2022-09-09T12:51:05;100410.22;;;20.31;54.50
62051;BME280;48008;51.204;6.766;2022-09-09T12:53:35;100410.19;;;20.49;54.06
62051;BME280;48008;51.204;6.766;2022-09-09T12:56:08;100407.03;;;20.52;54.31
62051;BME280;48008;51.204;6.766;2022-09-09T12:58:37;100415.66;;;20.61;54.22
62051;BME280;48008;51.204;6.766;2022-09-09T13:01:05;100408.53;;;20.67;54.28
62051;BME280;48008;51.204;6.766;2022-09-09T13:03:33;100401.06;;;20.81;54.37
62051;BME280;48008;51.204;6.766;2022-09-09T13:06:12;100410.09;;;20.75;54.62
62051;BME280;48008;51.204;6.766;2022-09-09T13:08:40;100406.00;;;20.72;55.90
62051;BME280;48008;51.204;6.766;2022-09-09T13:11:11;100412.22;;;20.84;56.60
62051;BME280;48008;51.204;6.766;2022-09-09T13:13:40;100412.44;;;20.83;56.77
62051;BME280;48008;51.204;6.766;2022-09-09T13:16:28;100397.63;;;20.43;55.60
62051;BME280;48008;51.204;6.766;2022-09-09T13:19:01;100402.94;;;20.68;55.75
62051;BME280;48008;51.204;6.766;2022-09-09T13:21:38;100405.91;;;20.60;55.26
62051;BME280;48008;51.204;6.766;2022-09-09T13:24:19;100402.03;;;20.56;55.51
62051;BME280;48008;51.204;6.766;2022-09-09T13:27:26;100413.41;;;20.88;54.79
62051;BME280;48008;51.204;6.766;2022-09-09T13:29:55;100401.72;;;20.64;55.72
62051;BME280;48008;51.204;6.766;2022-09-09T13:32:24;100401.63;;;20.71;54.97
62051;BME280;48008;51.204;6.766;2022-09-09T13:34:56;100392.06;;;20.57;56.26
62051;BME280;48008;51.204;6.766;2022-09-09T13:37:33;100390.06;;;20.82;55.89
62051;BME280;48008;51.204;6.766;2022-09-09T13:40:02;100387.38;;;20.82;55.37
62051;BME280;48008;51.204;6.766;2022-09-09T13:42:32;100392.31;;;20.85;54.92
62051;BME280;48008;51.204;6.766;2022-09-09T13:45:02;100416.19;;;20.82;54.87
62051;BME280;48008;51.204;6.766;2022-09-09T13:47:34;100386.53;;;20.51;57.12
62051;BME280;48008;51.204;6.766;2022-09-09T13:50:22;100380.63;;;20.12;57.88
62051;BME280;48008;51.204;6.766;2022-09-09T13:52:51;100380.47;;;20.07;58.21
62051;BME280;48008;51.204;6.766;2022-09-09T13:55:21;100380.53;;;20.01;58.67
62051;BME280;48008;51.204;6.766;2022-09-09T13:58:03;100396.03;;;19.87;59.69
62051;BME280;48008;51.204;6.766;2022-09-09T14:00:34;100398.78;;;19.80;64.11
62051;BME280;48008;51.204;6.766;2022-09-09T14:03:00;100395.09;;;20.79;58.59
62051;BME280;48008;51.204;6.766;2022-09-09T14:05:30;100386.88;;;21.27;58.23
62051;BME280;48008;51.204;6.766;2022-09-09T14:07:58;100386.59;;;21.05;57.52
62051;BME280;48008;51.204;6.766;2022-09-09T14:10:26;100388.19;;;20.83;56.51
62051;BME280;48008;51.204;6.766;2022-09-09T14:12:53;100393.16;;;21.09;56.44
62051;BME280;48008;51.204;6.766;2022-09-09T14:15:20;100389.38;;;20.87;56.73
62051;BME280;48008;51.204;6.766;2022-09-09T14:17:48;100395.78;;;20.74;57.02
62051;BME280;48008;51.204;6.766;2022-09-09T14:20:15;100394.03;;;20.49;57.76
62051;BME280;48008;51.204;6.766;2022-09-09T14:22:44;100390.81;;;20.41;57.00